sensor_id;sensor_type;location;lat;lon;timestamp;temperature;humidity
39347;DHT22;26262;49.836;6.632;2023-05-10T00:00:32;13.20;99.90
39347;DHT22;26262;49.836;6.632;2023-05-10T00:02:58;13.30;99.90
39347;DHT22;26262;49.836;6.632;2023-05-10T00:05:23;13.30;99.90
39347;DHT22;26262;49.836;6.632;2023-05-10T00:07:49;13.30;99.90
39347;DHT22;26262;49.836;6.632;2023-05-10T00:10:14;13.30;99.90
39347;DHT22;26262;49.836;6.632;2023-05-10T00:12:40;13.30;99.90
39347;DHT22;26262;49.836;6.632;2023-05-10T00:15:06;13.30;99.90
39347;DHT22;26262;49.836;6.632;2023-05-10T00:17:32;13.10;99.90
39347;DHT22;26262;49.836;6.632;2023-05-10T00:19:57;13.10;99.90
39347;DHT22;26262;49.836;6.632;2023-05-10T00:22:23;13.20;99.90
39347;DHT22;26262;49.836;6.632;2023-05-10T00:24:48;13.10;99.90
39347;DHT22;26262;49.836;6.632;2023-05-10T00:27:14;13.10;99.90
39347;DHT22;26262;49.836;6.632;2023-05-10T00:29:39;13.10;99.90
39347;DHT22;26262;49.836;6.632;2023-05-10T00:32:05;13.10;99.90
39347;DHT22;26262;49.836;6.632;2023-05-10T00:34:31;13.10;99.90
39347;DHT22;26262;49.836;6.632;2023-05-10T00:36:56;13.10;99.90
39347;DHT22;26262;49.836;6.632;2023-05-10T00:39:22;13.10;99.90
39347;DHT22;26262;49.836;6.632;2023-05-10T00:41:47;13.10;99.90
39347;DHT22;26262;49.836;6.632;2023-05-10T00:44:13;13.10;99.90
39347;DHT22;26262;49.836;6.632;2023-05-10T00:46:39;13.10;99.90
39347;DHT22;26262;49.836;6.632;2023-05-10T00:49:04;13.00;99.90
39347;DHT22;26262;49.836;6.632;2023-05-10T00:51:30;13.00;99.90
39347;DHT22;26262;49.836;6.632;2023-05-10T00:53:56;13.00;99.90
39347;DHT22;26262;49.836;6.632;2023-05-10T00:56:22;12.60;99.90
39347;DHT22;26262;49.836;6.632;2023-05-10T00:58:50;12.40;99.90
39347;DHT22;26262;49.836;6.632;2023-05-10T01:01:15;12.30;99.90
39347;DHT22;26262;49.836;6.632;2023-05-10T01:03:41;12.40;99.90
39347;DHT22;26262;49.836;6.632;2023-05-10T01:06:07;12.20;99.90
39347;DHT22;26262;49.836;6.632;2023-05-10T01:08:33;12.30;99.90
39347;DHT22;26262;49.836;6.632;2023-05-10T01:10:59;12.40;99.90
39347;DHT22;26262;49.836;6.632;2023-05-10T01:13:32;12.40;99.90
39347;DHT22;26262;49.836;6.632;2023-05-10T01:15:59;12.30;99.90
39347;DHT22;26262;49.836;6.632;2023-05-10T01:18:27;12.40;99.90
39347;DHT22;26262;49.836;6.632;2023-05-10T01:24:26;12.00;99.90
39347;DHT22;26262;49.836;6.632;2023-05-10T01:33:18;12.10;99.90
39347;DHT22;26262;49.836;6.632;2023-05-10T01:36:23;11.90;99.90
39347;DHT22;26262;49.836;6.632;2023-05-10T01:44:42;11.90;99.90
39347;DHT22;26262;49.836;6.632;2023-05-10T01:47:15;11.80;99.90
39347;DHT22;26262;49.836;6.632;2023-05-10T01:49:53;11.80;99.90
39347;DHT22;26262;49.836;6.632;2023-05-10T01:52:25;11.70;99.90
39347;DHT22;26262;49.836;6.632;2023-05-10T01:55:02;11.80;99.90
39347;DHT22;26262;49.836;6.632;2023-05-10T01:57:33;11.80;99.90
39347;DHT22;26262;49.836;6.632;2023-05-10T02:00:04;11.90;99.90
39347;DHT22;26262;49.836;6.632;2023-05-10T02:02:34;11.90;99.90
39347;DHT22;26262;49.836;6.632;2023-05-10T02:05:03;11.80;99.90
39347;DHT22;26262;49.836;6.632;2023-05-10T02:07:32;11.70;99.90
39347;DHT22;26262;49.836;6.632;2023-05-10T02:09:59;11.70;99.90
39347;DHT22;26262;49.836;6.632;2023-05-10T02:12:27;11.80;99.90
39347;DHT22;26262;49.836;6.632;2023-05-10T02:14:54;11.80;99.90
39347;DHT22;26262;49.836;6.632;2023-05-10T02:17:21;11.90;99.90
39347;DHT22;26262;49.836;6.632;2023-05-10T02:19:47;11.90;99.90
39347;DHT22;26262;49.836;6.632;2023-05-10T02:22:13;12.00;99.90
39347;DHT22;26262;49.836;6.632;2023-05-10T02:24:41;12.00;99.90
39347;DHT22;26262;49.836;6.632;2023-05-10T02:27:07;12.00;99.90
39347;DHT22;26262;49.836;6.632;2023-05-10T02:29:34;11.90;99.90
39347;DHT22;26262;49.836;6.632;2023-05-10T02:32:01;11.80;99.90
39347;DHT22;26262;49.836;6.632;2023-05-10T02:34:28;11.90;99.90
39347;DHT22;26262;49.836;6.632;2023-05-10T02:36:55;11.80;99.90
39347;DHT22;26262;49.836;6.632;2023-05-10T02:39:22;11.90;99.90
39347;DHT22;26262;49.836;6.632;2023-05-10T02:41:50;11.90;99.90
39347;DHT22;26262;49.836;6.632;2023-05-10T02:44:18;11.80;99.90
39347;DHT22;26262;49.836;6.632;2023-05-10T02:46:44;12.00;99.90
39347;DHT22;26262;49.836;6.632;2023-05-10T02:49:10;12.00;99.90
39347;DHT22;26262;49.836;6.632;2023-05-10T02:51:41;12.00;99.90
39347;DHT22;26262;49.836;6.632;2023-05-10T02:54:11;11.90;99.90
39347;DHT22;26262;49.836;6.632;2023-05-10T02:56:42;12.00;99.90
39347;DHT22;26262;49.836;6.632;2023-05-10T02:59:08;11.90;99.90
39347;DHT22;26262;49.836;6.632;2023-05-10T03:01:33;11.90;99.90
39347;DHT22;26262;49.836;6.632;2023-05-10T03:03:59;11.90;99.90
39347;DHT22;26262;49.836;6.632;2023-05-10T03:06:25;11.80;99.90
39347;DHT22;26262;49.836;6.632;2023-05-10T03:08:51;11.90;99.90
39347;DHT22;26262;49.836;6.632;2023-05-10T03:11:22;12.00;99.90
39347;DHT22;26262;49.836;6.632;2023-05-10T03:16:45;12.10;99.90
39347;DHT22;26262;49.836;6.632;2023-05-10T03:19:29;12.00;99.90
39347;DHT22;26262;49.836;6.632;2023-05-10T03:21:59;11.90;99.90
39347;DHT22;26262;49.836;6.632;2023-05-10T03:24:30;12.00;99.90
39347;DHT22;26262;49.836;6.632;2023-05-10T03:26:58;12.00;99.90
39347;DHT22;26262;49.836;6.632;2023-05-10T03:29:28;12.00;99.90
39347;DHT22;26262;49.836;6.632;2023-05-10T03:31:54;12.10;99.90
39347;DHT22;26262;49.836;6.632;2023-05-10T03:34:23;12.00;99.90
39347;DHT22;26262;49.836;6.632;2023-05-10T03:36:49;11.90;99.90
39347;DHT22;26262;49.836;6.632;2023-05-10T03:39:15;12.00;99.90
39347;DHT22;26262;49.836;6.632;2023-05-10T03:41:40;12.00;99.90
39347;DHT22;26262;49.836;6.632;2023-05-10T03:44:06;12.10;99.90
39347;DHT22;26262;49.836;6.632;2023-05-10T03:46:32;12.10;99.90
39347;DHT22;26262;49.836;6.632;2023-05-10T03:48:57;12.20;99.90
39347;DHT22;26262;49.836;6.632;2023-05-10T03:51:23;12.30;99.90
39347;DHT22;26262;49.836;6.632;2023-05-10T03:53:55;12.30;99.90
39347;DHT22;26262;49.836;6.632;2023-05-10T03:56:21;12.20;99.90
39347;DHT22;26262;49.836;6.632;2023-05-10T03:58:47;12.10;99.90
39347;DHT22;26262;49.836;6.632;2023-05-10T04:01:12;12.20;99.90
39347;DHT22;26262;49.836;6.632;2023-05-10T04:03:38;12.30;99.90
39347;DHT22;26262;49.836;6.632;2023-05-10T04:06:04;12.30;99.90
39347;DHT22;26262;49.836;6.632;2023-05-10T04:08:30;12.30;99.90
39347;DHT22;26262;49.836;6.632;2023-05-10T04:11:05;12.30;99.90
39347;DHT22;26262;49.836;6.632;2023-05-10T04:13:31;12.50;99.90
39347;DHT22;26262;49.836;6.632;2023-05-10T04:15:57;12.50;99.90
39347;DHT22;26262;49.836;6.632;2023-05-10T04:18:23;12.40;99.90
39347;DHT22;26262;49.836;6.632;2023-05-10T04:20:48;12.50;99.90
39347;DHT22;26262;49.836;6.632;2023-05-10T04:23:14;12.60;99.90
39347;DHT22;26262;49.836;6.632;2023-05-10T04:25:40;12.60;99.90
39347;DHT22;26262;49.836;6.632;2023-05-10T04:28:06;12.60;99.90
39347;DHT22;26262;49.836;6.632;2023-05-10T04:30:31;12.50;99.90
39347;DHT22;26262;49.836;6.632;2023-05-10T04:32:57;12.50;99.90
39347;DHT22;26262;49.836;6.632;2023-05-10T04:35:23;12.50;99.90
39347;DHT22;26262;49.836;6.632;2023-05-10T04:37:48;12.40;99.90
39347;DHT22;26262;49.836;6.632;2023-05-10T04:40:14;12.50;99.90
39347;DHT22;26262;49.836;6.632;2023-05-10T04:42:40;12.50;99.90
39347;DHT22;26262;49.836;6.632;2023-05-10T04:45:09;12.50;99.90
39347;DHT22;26262;49.836;6.632;2023-05-10T04:47:35;12.60;99.90
39347;DHT22;26262;49.836;6.632;2023-05-10T04:50:03;12.70;99.90
39347;DHT22;26262;49.836;6.632;2023-05-10T04:52:28;12.60;99.90
39347;DHT22;26262;49.836;6.632;2023-05-10T04:54:54;12.40;99.90
39347;DHT22;26262;49.836;6.632;2023-05-10T04:57:20;12.20;99.90
39347;DHT22;26262;49.836;6.632;2023-05-10T04:59:45;12.20;99.90
39347;DHT22;26262;49.836;6.632;2023-05-10T05:02:11;12.20;99.90
39347;DHT22;26262;49.836;6.632;2023-05-10T05:04:36;12.40;99.90
39347;DHT22;26262;49.836;6.632;2023-05-10T05:07:02;12.40;99.90
39347;DHT22;26262;49.836;6.632;2023-05-10T05:09:27;12.40;99.90
39347;DHT22;26262;49.836;6.632;2023-05-10T05:11:53;12.50;99.90
39347;DHT22;26262;49.836;6.632;2023-05-10T05:14:19;12.50;99.90
39347;DHT22;26262;49.836;6.632;2023-05-10T05:16:46;12.40;99.90
39347;DHT22;26262;49.836;6.632;2023-05-10T05:19:12;12.50;99.90
39347;DHT22;26262;49.836;6.632;2023-05-10T05:21:37;12.50;99.90
39347;DHT22;26262;49.836;6.632;2023-05-10T05:24:03;12.60;99.90
39347;DHT22;26262;49.836;6.632;2023-05-10T05:26:29;12.60;99.90
39347;DHT22;26262;49.836;6.632;2023-05-10T05:28:54;12.60;99.90
39347;DHT22;26262;49.836;6.632;2023-05-10T05:31:20;12.60;99.90
39347;DHT22;26262;49.836;6.632;2023-05-10T05:33:46;12.70;99.90
39347;DHT22;26262;49.836;6.632;2023-05-10T05:36:12;12.80;99.90
39347;DHT22;26262;49.836;6.632;2023-05-10T05:38:37;12.70;99.90
39347;DHT22;26262;49.836;6.632;2023-05-10T05:41:03;12.70;99.90
39347;DHT22;26262;49.836;6.632;2023-05-10T05:43:28;12.70;99.90
39347;DHT22;26262;49.836;6.632;2023-05-10T05:45:54;12.70;99.90
39347;DHT22;26262;49.836;6.632;2023-05-10T05:48:20;12.80;99.90
39347;DHT22;26262;49.836;6.632;2023-05-10T05:50:45;12.90;99.90
39347;DHT22;26262;49.836;6.632;2023-05-10T05:53:12;12.90;99.90
39347;DHT22;26262;49.836;6.632;2023-05-10T05:55:38;12.90;99.90
39347;DHT22;26262;49.836;6.632;2023-05-10T05:58:03;12.90;99.90
39347;DHT22;26262;49.836;6.632;2023-05-10T06:00:29;12.90;99.90
39347;DHT22;26262;49.836;6.632;2023-05-10T06:02:54;13.00;99.90
39347;DHT22;26262;49.836;6.632;2023-05-10T06:05:20;13.00;99.90
39347;DHT22;26262;49.836;6.632;2023-05-10T06:07:46;13.00;99.90
39347;DHT22;26262;49.836;6.632;2023-05-10T06:10:11;13.10;99.90
39347;DHT22;26262;49.836;6.632;2023-05-10T06:12:37;13.10;99.90
39347;DHT22;26262;49.836;6.632;2023-05-10T06:15:03;13.10;99.90
39347;DHT22;26262;49.836;6.632;2023-05-10T06:17:29;13.10;99.90
39347;DHT22;26262;49.836;6.632;2023-05-10T06:19:55;13.10;99.90
39347;DHT22;26262;49.836;6.632;2023-05-10T06:22:21;13.00;99.90
39347;DHT22;26262;49.836;6.632;2023-05-10T06:24:48;13.00;99.90
39347;DHT22;26262;49.836;6.632;2023-05-10T06:27:14;13.00;99.90
39347;DHT22;26262;49.836;6.632;2023-05-10T06:29:39;13.10;99.90
39347;DHT22;26262;49.836;6.632;2023-05-10T06:32:05;13.00;99.90
39347;DHT22;26262;49.836;6.632;2023-05-10T06:34:30;13.20;99.90
39347;DHT22;26262;49.836;6.632;2023-05-10T06:36:57;13.20;99.90
39347;DHT22;26262;49.836;6.632;2023-05-10T06:39:22;13.10;99.90
39347;DHT22;26262;49.836;6.632;2023-05-10T06:41:48;13.10;99.90
39347;DHT22;26262;49.836;6.632;2023-05-10T06:44:13;13.00;99.90
39347;DHT22;26262;49.836;6.632;2023-05-10T06:46:39;12.80;99.90
39347;DHT22;26262;49.836;6.632;2023-05-10T06:49:04;12.80;99.90
39347;DHT22;26262;49.836;6.632;2023-05-10T06:51:30;12.80;99.90
39347;DHT22;26262;49.836;6.632;2023-05-10T06:53:56;12.80;99.90
39347;DHT22;26262;49.836;6.632;2023-05-10T06:56:21;12.80;99.90
39347;DHT22;26262;49.836;6.632;2023-05-10T06:58:47;12.80;99.90
39347;DHT22;26262;49.836;6.632;2023-05-10T07:01:13;12.70;99.90
39347;DHT22;26262;49.836;6.632;2023-05-10T07:03:39;12.80;99.90
39347;DHT22;26262;49.836;6.632;2023-05-10T07:06:05;12.90;99.90
39347;DHT22;26262;49.836;6.632;2023-05-10T07:08:33;13.10;99.90
39347;DHT22;26262;49.836;6.632;2023-05-10T07:11:06;13.20;99.90
39347;DHT22;26262;49.836;6.632;2023-05-10T07:13:35;13.30;99.90
39347;DHT22;26262;49.836;6.632;2023-05-10T07:16:01;13.40;99.90
39347;DHT22;26262;49.836;6.632;2023-05-10T07:18:28;13.50;99.90
39347;DHT22;26262;49.836;6.632;2023-05-10T07:20:54;13.40;99.90
39347;DHT22;26262;49.836;6.632;2023-05-10T07:23:19;13.30;99.90
39347;DHT22;26262;49.836;6.632;2023-05-10T07:25:47;13.30;99.90
39347;DHT22;26262;49.836;6.632;2023-05-10T07:28:13;13.30;99.90
39347;DHT22;26262;49.836;6.632;2023-05-10T07:30:39;13.30;99.90
39347;DHT22;26262;49.836;6.632;2023-05-10T07:33:05;13.20;99.90
39347;DHT22;26262;49.836;6.632;2023-05-10T07:35:30;13.20;99.90
39347;DHT22;26262;49.836;6.632;2023-05-10T07:37:56;13.10;99.90
39347;DHT22;26262;49.836;6.632;2023-05-10T07:40:21;13.10;99.90
39347;DHT22;26262;49.836;6.632;2023-05-10T07:42:47;13.10;99.90
39347;DHT22;26262;49.836;6.632;2023-05-10T07:45:12;13.10;99.90
39347;DHT22;26262;49.836;6.632;2023-05-10T07:47:38;13.10;99.90
39347;DHT22;26262;49.836;6.632;2023-05-10T07:50:04;13.20;99.90
39347;DHT22;26262;49.836;6.632;2023-05-10T07:52:30;13.10;99.90
39347;DHT22;26262;49.836;6.632;2023-05-10T07:54:55;13.00;99.90
39347;DHT22;26262;49.836;6.632;2023-05-10T07:57:22;13.20;99.90
39347;DHT22;26262;49.836;6.632;2023-05-10T07:59:47;13.40;99.90
39347;DHT22;26262;49.836;6.632;2023-05-10T08:02:13;13.50;99.90
39347;DHT22;26262;49.836;6.632;2023-05-10T08:04:38;13.60;99.90
39347;DHT22;26262;49.836;6.632;2023-05-10T08:07:04;13.70;99.90
39347;DHT22;26262;49.836;6.632;2023-05-10T08:09:29;13.60;99.90
39347;DHT22;26262;49.836;6.632;2023-05-10T08:11:55;13.80;99.90
39347;DHT22;26262;49.836;6.632;2023-05-10T08:14:20;13.90;99.90
39347;DHT22;26262;49.836;6.632;2023-05-10T08:16:46;13.80;99.90
39347;DHT22;26262;49.836;6.632;2023-05-10T08:19:12;13.70;99.90
39347;DHT22;26262;49.836;6.632;2023-05-10T08:21:38;13.60;99.90
39347;DHT22;26262;49.836;6.632;2023-05-10T08:24:03;13.80;99.90
39347;DHT22;26262;49.836;6.632;2023-05-10T08:26:30;14.00;99.90
39347;DHT22;26262;49.836;6.632;2023-05-10T08:28:56;13.90;99.90
39347;DHT22;26262;49.836;6.632;2023-05-10T08:31:21;13.80;99.90
39347;DHT22;26262;49.836;6.632;2023-05-10T08:33:47;13.90;99.90
39347;DHT22;26262;49.836;6.632;2023-05-10T08:36:12;14.00;99.90
39347;DHT22;26262;49.836;6.632;2023-05-10T08:38:39;14.20;99.90
39347;DHT22;26262;49.836;6.632;2023-05-10T08:41:05;14.40;99.90
39347;DHT22;26262;49.836;6.632;2023-05-10T08:43:31;14.60;99.90
39347;DHT22;26262;49.836;6.632;2023-05-10T08:46:00;14.60;99.90
39347;DHT22;26262;49.836;6.632;2023-05-10T08:48:29;14.70;99.90
39347;DHT22;26262;49.836;6.632;2023-05-10T08:50:55;15.00;99.90
39347;DHT22;26262;49.836;6.632;2023-05-10T08:53:24;15.40;99.90
39347;DHT22;26262;49.836;6.632;2023-05-10T08:55:50;15.60;99.90
39347;DHT22;26262;49.836;6.632;2023-05-10T08:58:16;15.50;99.90
39347;DHT22;26262;49.836;6.632;2023-05-10T09:00:42;15.30;99.90
39347;DHT22;26262;49.836;6.632;2023-05-10T09:03:08;14.90;99.90
39347;DHT22;26262;49.836;6.632;2023-05-10T09:05:36;14.90;99.90
39347;DHT22;26262;49.836;6.632;2023-05-10T09:08:01;14.60;99.90
39347;DHT22;26262;49.836;6.632;2023-05-10T09:10:28;14.50;99.90
39347;DHT22;26262;49.836;6.632;2023-05-10T09:12:56;13.70;99.90
39347;DHT22;26262;49.836;6.632;2023-05-10T09:15:22;13.30;99.90
39347;DHT22;26262;49.836;6.632;2023-05-10T09:17:49;13.10;99.90
39347;DHT22;26262;49.836;6.632;2023-05-10T09:20:15;12.90;99.90
39347;DHT22;26262;49.836;6.632;2023-05-10T09:22:43;12.80;99.90
39347;DHT22;26262;49.836;6.632;2023-05-10T09:25:15;12.70;99.90
39347;DHT22;26262;49.836;6.632;2023-05-10T09:27:47;12.80;99.90
39347;DHT22;26262;49.836;6.632;2023-05-10T09:30:27;13.00;99.90
39347;DHT22;26262;49.836;6.632;2023-05-10T09:32:54;12.80;99.90
39347;DHT22;26262;49.836;6.632;2023-05-10T09:35:22;12.70;99.90
39347;DHT22;26262;49.836;6.632;2023-05-10T09:37:52;12.70;99.90
39347;DHT22;26262;49.836;6.632;2023-05-10T09:40:21;12.80;99.90
39347;DHT22;26262;49.836;6.632;2023-05-10T09:43:01;12.90;99.90
39347;DHT22;26262;49.836;6.632;2023-05-10T09:45:31;13.00;99.90
39347;DHT22;26262;49.836;6.632;2023-05-10T09:47:57;12.90;99.90
39347;DHT22;26262;49.836;6.632;2023-05-10T09:50:24;12.90;99.90
39347;DHT22;26262;49.836;6.632;2023-05-10T09:52:58;13.00;99.90
39347;DHT22;26262;49.836;6.632;2023-05-10T09:55:25;13.20;99.90
39347;DHT22;26262;49.836;6.632;2023-05-10T09:58:01;13.60;99.90
39347;DHT22;26262;49.836;6.632;2023-05-10T10:00:28;13.80;99.90
39347;DHT22;26262;49.836;6.632;2023-05-10T10:02:59;14.00;99.90
39347;DHT22;26262;49.836;6.632;2023-05-10T10:05:29;14.20;99.90
39347;DHT22;26262;49.836;6.632;2023-05-10T10:07:56;14.40;99.90
39347;DHT22;26262;49.836;6.632;2023-05-10T10:10:23;14.40;99.90
39347;DHT22;26262;49.836;6.632;2023-05-10T10:12:49;14.50;99.90
39347;DHT22;26262;49.836;6.632;2023-05-10T10:15:16;14.60;99.90
39347;DHT22;26262;49.836;6.632;2023-05-10T10:17:43;14.70;99.90
39347;DHT22;26262;49.836;6.632;2023-05-10T10:20:09;14.80;99.90
39347;DHT22;26262;49.836;6.632;2023-05-10T10:22:36;14.70;99.90
39347;DHT22;26262;49.836;6.632;2023-05-10T10:25:03;14.80;99.90
39347;DHT22;26262;49.836;6.632;2023-05-10T10:27:43;15.10;99.90
39347;DHT22;26262;49.836;6.632;2023-05-10T10:30:30;15.10;99.90
39347;DHT22;26262;49.836;6.632;2023-05-10T10:35:29;14.40;99.90
39347;DHT22;26262;49.836;6.632;2023-05-10T10:37:56;14.20;99.90
39347;DHT22;26262;49.836;6.632;2023-05-10T10:40:30;14.10;99.90
39347;DHT22;26262;49.836;6.632;2023-05-10T10:42:57;14.20;99.90
39347;DHT22;26262;49.836;6.632;2023-05-10T10:45:24;14.00;99.90
39347;DHT22;26262;49.836;6.632;2023-05-10T10:48:19;14.10;99.90
39347;DHT22;26262;49.836;6.632;2023-05-10T10:50:45;14.40;99.90
39347;DHT22;26262;49.836;6.632;2023-05-10T10:53:12;15.20;99.90
39347;DHT22;26262;49.836;6.632;2023-05-10T10:55:46;15.20;99.90
39347;DHT22;26262;49.836;6.632;2023-05-10T10:58:32;15.40;99.90
39347;DHT22;26262;49.836;6.632;2023-05-10T11:01:17;15.30;99.90
39347;DHT22;26262;49.836;6.632;2023-05-10T11:06:31;15.20;99.90
39347;DHT22;26262;49.836;6.632;2023-05-10T11:08:58;15.70;99.90
39347;DHT22;26262;49.836;6.632;2023-05-10T11:11:24;15.60;99.90
39347;DHT22;26262;49.836;6.632;2023-05-10T11:13:50;15.60;99.90
39347;DHT22;26262;49.836;6.632;2023-05-10T11:16:22;15.70;99.90
39347;DHT22;26262;49.836;6.632;2023-05-10T11:19:09;15.60;99.90
39347;DHT22;26262;49.836;6.632;2023-05-10T11:21:48;15.60;99.90
39347;DHT22;26262;49.836;6.632;2023-05-10T11:24:19;15.40;99.90
39347;DHT22;26262;49.836;6.632;2023-05-10T11:26:45;15.40;99.90
39347;DHT22;26262;49.836;6.632;2023-05-10T11:29:12;15.10;99.90
39347;DHT22;26262;49.836;6.632;2023-05-10T11:31:43;15.30;99.90
39347;DHT22;26262;49.836;6.632;2023-05-10T11:34:09;14.90;99.90
39347;DHT22;26262;49.836;6.632;2023-05-10T11:36:36;15.00;99.90
39347;DHT22;26262;49.836;6.632;2023-05-10T11:39:03;15.20;99.90
39347;DHT22;26262;49.836;6.632;2023-05-10T11:41:30;14.90;99.90
39347;DHT22;26262;49.836;6.632;2023-05-10T11:43:57;14.60;99.90
39347;DHT22;26262;49.836;6.632;2023-05-10T11:46:25;14.50;99.90
39347;DHT22;26262;49.836;6.632;2023-05-10T11:48:55;14.60;99.90
39347;DHT22;26262;49.836;6.632;2023-05-10T11:51:24;14.60;99.90
39347;DHT22;26262;49.836;6.632;2023-05-10T11:53:53;14.60;99.90
39347;DHT22;26262;49.836;6.632;2023-05-10T11:56:19;14.70;99.90
39347;DHT22;26262;49.836;6.632;2023-05-10T11:58:54;14.60;99.90
39347;DHT22;26262;49.836;6.632;2023-05-10T12:01:21;14.60;99.90
39347;DHT22;26262;49.836;6.632;2023-05-10T12:03:48;14.70;99.90
39347;DHT22;26262;49.836;6.632;2023-05-10T12:06:13;14.80;99.90
39347;DHT22;26262;49.836;6.632;2023-05-10T12:08:44;14.90;99.90
39347;DHT22;26262;49.836;6.632;2023-05-10T12:11:12;15.20;99.90
39347;DHT22;26262;49.836;6.632;2023-05-10T12:13:40;14.90;99.90
39347;DHT22;26262;49.836;6.632;2023-05-10T12:16:23;15.10;99.90
39347;DHT22;26262;49.836;6.632;2023-05-10T12:18:57;15.10;99.90
39347;DHT22;26262;49.836;6.632;2023-05-10T12:21:23;15.10;99.90
39347;DHT22;26262;49.836;6.632;2023-05-10T12:23:54;15.30;99.90
39347;DHT22;26262;49.836;6.632;2023-05-10T12:26:26;15.30;99.90
39347;DHT22;26262;49.836;6.632;2023-05-10T12:28:53;15.40;99.90
39347;DHT22;26262;49.836;6.632;2023-05-10T12:31:19;15.50;99.90
39347;DHT22;26262;49.836;6.632;2023-05-10T12:33:45;15.40;99.90
39347;DHT22;26262;49.836;6.632;2023-05-10T12:36:13;15.30;99.90
39347;DHT22;26262;49.836;6.632;2023-05-10T12:38:41;15.70;99.90
39347;DHT22;26262;49.836;6.632;2023-05-10T12:41:13;15.90;99.90
39347;DHT22;26262;49.836;6.632;2023-05-10T12:43:39;16.10;99.90
39347;DHT22;26262;49.836;6.632;2023-05-10T12:46:09;16.30;99.90
39347;DHT22;26262;49.836;6.632;2023-05-10T12:48:36;16.60;99.90
39347;DHT22;26262;49.836;6.632;2023-05-10T12:51:03;16.50;99.90
39347;DHT22;26262;49.836;6.632;2023-05-10T12:53:29;16.70;99.90
39347;DHT22;26262;49.836;6.632;2023-05-10T12:55:54;16.90;99.90
39347;DHT22;26262;49.836;6.632;2023-05-10T12:58:20;16.90;99.90
39347;DHT22;26262;49.836;6.632;2023-05-10T13:00:46;16.90;99.90
39347;DHT22;26262;49.836;6.632;2023-05-10T13:03:11;16.70;99.90
39347;DHT22;26262;49.836;6.632;2023-05-10T13:05:37;16.80;99.90
39347;DHT22;26262;49.836;6.632;2023-05-10T13:08:03;16.70;99.90
39347;DHT22;26262;49.836;6.632;2023-05-10T13:10:30;16.60;99.90
39347;DHT22;26262;49.836;6.632;2023-05-10T13:12:56;16.50;99.90
39347;DHT22;26262;49.836;6.632;2023-05-10T13:15:22;16.20;99.90
39347;DHT22;26262;49.836;6.632;2023-05-10T13:17:48;16.30;99.90
39347;DHT22;26262;49.836;6.632;2023-05-10T13:20:14;16.20;99.90
39347;DHT22;26262;49.836;6.632;2023-05-10T13:22:40;16.20;99.90
39347;DHT22;26262;49.836;6.632;2023-05-10T13:25:06;16.10;99.90
39347;DHT22;26262;49.836;6.632;2023-05-10T13:27:32;16.20;99.90
39347;DHT22;26262;49.836;6.632;2023-05-10T13:29:57;16.50;99.90
39347;DHT22;26262;49.836;6.632;2023-05-10T13:32:25;16.40;99.90
39347;DHT22;26262;49.836;6.632;2023-05-10T13:34:51;16.60;99.90
39347;DHT22;26262;49.836;6.632;2023-05-10T13:37:16;16.60;99.90
39347;DHT22;26262;49.836;6.632;2023-05-10T13:39:42;16.30;99.90
39347;DHT22;26262;49.836;6.632;2023-05-10T13:42:08;16.50;99.90
39347;DHT22;26262;49.836;6.632;2023-05-10T13:44:33;16.50;99.90
39347;DHT22;26262;49.836;6.632;2023-05-10T13:46:59;16.40;99.90
39347;DHT22;26262;49.836;6.632;2023-05-10T13:49:24;16.60;99.90
39347;DHT22;26262;49.836;6.632;2023-05-10T13:51:50;16.70;99.90
39347;DHT22;26262;49.836;6.632;2023-05-10T13:54:16;17.10;99.90
39347;DHT22;26262;49.836;6.632;2023-05-10T13:56:45;17.80;99.90
39347;DHT22;26262;49.836;6.632;2023-05-10T13:59:12;18.30;99.90
39347;DHT22;26262;49.836;6.632;2023-05-10T14:01:38;18.60;99.90
39347;DHT22;26262;49.836;6.632;2023-05-10T14:04:03;18.50;99.90
39347;DHT22;26262;49.836;6.632;2023-05-10T14:06:29;17.70;99.90
39347;DHT22;26262;49.836;6.632;2023-05-10T14:08:54;17.20;99.90
39347;DHT22;26262;49.836;6.632;2023-05-10T14:11:20;17.30;99.90
39347;DHT22;26262;49.836;6.632;2023-05-10T14:13:46;17.30;99.90
39347;DHT22;26262;49.836;6.632;2023-05-10T14:16:11;17.80;99.90
39347;DHT22;26262;49.836;6.632;2023-05-10T14:18:37;18.50;99.90
39347;DHT22;26262;49.836;6.632;2023-05-10T14:21:03;18.80;99.90
39347;DHT22;26262;49.836;6.632;2023-05-10T14:23:29;19.20;99.90
39347;DHT22;26262;49.836;6.632;2023-05-10T14:25:55;19.10;99.90
39347;DHT22;26262;49.836;6.632;2023-05-10T14:28:21;19.30;99.90
39347;DHT22;26262;49.836;6.632;2023-05-10T14:30:47;18.90;99.90
39347;DHT22;26262;49.836;6.632;2023-05-10T14:33:13;18.70;99.90
39347;DHT22;26262;49.836;6.632;2023-05-10T14:35:39;19.30;99.90
39347;DHT22;26262;49.836;6.632;2023-05-10T14:38:04;19.80;99.90
39347;DHT22;26262;49.836;6.632;2023-05-10T14:40:30;20.10;99.90
39347;DHT22;26262;49.836;6.632;2023-05-10T14:42:56;20.30;99.90
39347;DHT22;26262;49.836;6.632;2023-05-10T14:45:22;20.20;99.90
39347;DHT22;26262;49.836;6.632;2023-05-10T14:47:49;20.10;99.90
39347;DHT22;26262;49.836;6.632;2023-05-10T14:50:14;20.30;99.90
39347;DHT22;26262;49.836;6.632;2023-05-10T14:52:40;20.30;99.90
39347;DHT22;26262;49.836;6.632;2023-05-10T14:55:06;20.10;99.90
39347;DHT22;26262;49.836;6.632;2023-05-10T14:57:32;20.40;99.90
39347;DHT22;26262;49.836;6.632;2023-05-10T14:59:58;20.20;99.90
39347;DHT22;26262;49.836;6.632;2023-05-10T15:02:24;19.80;99.90
39347;DHT22;26262;49.836;6.632;2023-05-10T15:04:49;20.30;99.90
39347;DHT22;26262;49.836;6.632;2023-05-10T15:07:16;20.60;99.90
39347;DHT22;26262;49.836;6.632;2023-05-10T15:09:44;20.70;99.90
39347;DHT22;26262;49.836;6.632;2023-05-10T15:12:09;20.40;99.90
39347;DHT22;26262;49.836;6.632;2023-05-10T15:14:35;20.10;99.90
39347;DHT22;26262;49.836;6.632;2023-05-10T15:17:01;20.10;99.90
39347;DHT22;26262;49.836;6.632;2023-05-10T15:19:27;20.20;99.90
39347;DHT22;26262;49.836;6.632;2023-05-10T15:21:54;19.50;99.90
39347;DHT22;26262;49.836;6.632;2023-05-10T15:24:21;18.90;99.90
39347;DHT22;26262;49.836;6.632;2023-05-10T15:26:46;19.00;99.90
39347;DHT22;26262;49.836;6.632;2023-05-10T15:29:12;19.10;99.90
39347;DHT22;26262;49.836;6.632;2023-05-10T15:31:48;18.50;98.50
39347;DHT22;26262;49.836;6.632;2023-05-10T15:34:14;18.60;99.90
39347;DHT22;26262;49.836;6.632;2023-05-10T15:36:40;18.60;99.90
39347;DHT22;26262;49.836;6.632;2023-05-10T15:39:05;18.50;99.90
39347;DHT22;26262;49.836;6.632;2023-05-10T15:41:31;18.50;99.90
39347;DHT22;26262;49.836;6.632;2023-05-10T15:43:58;18.40;99.90
39347;DHT22;26262;49.836;6.632;2023-05-10T15:46:25;18.50;99.90
39347;DHT22;26262;49.836;6.632;2023-05-10T15:48:50;18.60;99.90
39347;DHT22;26262;49.836;6.632;2023-05-10T15:51:16;18.50;99.90
39347;DHT22;26262;49.836;6.632;2023-05-10T15:53:42;18.40;99.90